createdAt,value
2024-02-09T00:00:24.638Z,97754.69
2024-02-09T00:02:51.164Z,97744.72
2024-02-09T00:05:18.640Z,97745.56
2024-02-09T00:07:52.166Z,97738.44
2024-02-09T00:10:19.735Z,97741.22
2024-02-09T00:12:49.240Z,97741.22
2024-02-09T00:15:19.578Z,97743.34
2024-02-09T00:17:46.319Z,97732.72
2024-02-09T00:20:13.356Z,97732.53
2024-02-09T00:22:40.171Z,97732.72
2024-02-09T00:25:11.495Z,97736.88
2024-02-09T00:27:39.079Z,97737.50
2024-02-09T00:30:06.840Z,97731.22
2024-02-09T00:32:34.027Z,97738.16
2024-02-09T00:35:00.950Z,97725.91
2024-02-09T00:37:30.436Z,97714.47
2024-02-09T00:39:58.029Z,97723.81
2024-02-09T00:42:24.816Z,97724.44
2024-02-09T00:44:51.603Z,97729.44
2024-02-09T00:47:18.066Z,97725.69
2024-02-09T00:49:45.194Z,97718.56
2024-02-09T00:52:12.888Z,97721.47
2024-02-09T00:54:39.890Z,97709.34
2024-02-09T00:57:06.589Z,97709.34
2024-02-09T00:59:34.831Z,97702.22
2024-02-09T01:02:05.727Z,97713.09
2024-02-09T01:04:35.385Z,97701.81
2024-02-09T01:07:04.947Z,97697.44
2024-02-09T01:09:34.830Z,97702.03
2024-02-09T01:12:06.091Z,97700.44
2024-02-09T01:14:51.262Z,97712.13
2024-02-09T01:17:36.071Z,97700.78
2024-02-09T01:20:20.822Z,97714.16
2024-02-09T01:23:05.615Z,97715.28
2024-02-09T01:25:50.447Z,97713.41
2024-02-09T01:28:35.402Z,97709.13
2024-02-09T01:31:20.301Z,97705.09
2024-02-09T01:34:05.338Z,97723.19
2024-02-09T01:36:50.498Z,97721.47
2024-02-09T01:39:35.336Z,97713.59
2024-02-09T01:42:20.103Z,97702.34
2024-02-09T01:45:05.063Z,97706.91
2024-02-09T01:47:49.806Z,97704.59
2024-02-09T01:50:34.609Z,97701.41
2024-02-09T01:53:19.399Z,97707.88
2024-02-09T01:56:04.689Z,97711.38
2024-02-09T01:58:50.084Z,97691.41
2024-02-09T02:01:34.995Z,97686.63
2024-02-09T02:04:20.133Z,97689.41
2024-02-09T02:07:05.017Z,97679.97
2024-02-09T02:09:49.951Z,97674.34
2024-02-09T02:12:34.853Z,97680.81
2024-02-09T02:15:20.187Z,97663.22
2024-02-09T02:18:05.123Z,97678.91
2024-02-09T02:20:50.451Z,97673.69
2024-02-09T02:23:45.290Z,97669.47
2024-02-09T02:26:30.611Z,97667.78
2024-02-09T02:29:15.467Z,97658.44
2024-02-09T02:32:00.787Z,97654.19
2024-02-09T02:34:45.740Z,97660.53
2024-02-09T02:37:30.473Z,97653.44
2024-02-09T02:40:15.440Z,97659.59
2024-02-09T02:42:41.802Z,97647.41
2024-02-09T02:45:13.178Z,97653.78
2024-02-09T02:47:41.482Z,97648.56
2024-02-09T02:50:27.746Z,97648.00
2024-02-09T02:53:12.575Z,97641.88
2024-02-09T02:55:57.468Z,97641.22
2024-02-09T02:58:42.355Z,97632.75
2024-02-09T03:01:27.207Z,97636.25
2024-02-09T03:04:12.582Z,97629.44
2024-02-09T03:06:54.152Z,97624.69
2024-02-09T03:09:25.292Z,97616.84
2024-02-09T03:11:51.723Z,97616.00
2024-02-09T03:14:18.067Z,97612.69
2024-02-09T03:16:46.367Z,97598.78
2024-02-09T03:19:16.476Z,97598.19
2024-02-09T03:21:43.162Z,97597.94
2024-02-09T03:24:09.649Z,97601.44
2024-02-09T03:26:35.970Z,97602.50
2024-02-09T03:29:02.323Z,97601.34
2024-02-09T03:31:31.741Z,97597.94
2024-02-09T03:33:58.880Z,97600.59
2024-02-09T03:36:25.414Z,97599.66
2024-02-09T03:38:51.790Z,97598.78
2024-02-09T03:41:18.222Z,97592.56
2024-02-09T03:43:44.562Z,97592.56
2024-02-09T03:46:11.782Z,97587.34
2024-02-09T03:48:38.273Z,97592.88
2024-02-09T03:51:05.207Z,97594.66
2024-02-09T03:53:34.990Z,97579.28
2024-02-09T03:56:01.672Z,97590.22
2024-02-09T03:58:28.225Z,97607.72
2024-02-09T04:00:54.599Z,97598.78
2024-02-09T04:03:20.986Z,97598.06
2024-02-09T04:05:47.629Z,97598.91
2024-02-09T04:08:14.043Z,97592.75
2024-02-09T04:10:44.094Z,97592.22
2024-02-09T04:13:13.294Z,97591.25
2024-02-09T04:15:39.897Z,97596.38
2024-02-09T04:18:07.680Z,97587.56
2024-02-09T04:20:34.226Z,97591.25
2024-02-09T04:23:01.533Z,97598.06
2024-02-09T04:25:28.232Z,97601.56
2024-02-09T04:27:54.735Z,97591.81
2024-02-09T04:30:22.759Z,97584.69
2024-02-09T04:32:49.162Z,97578.56
2024-02-09T04:35:16.878Z,97572.41
2024-02-09T04:37:43.363Z,97576.09
2024-02-09T04:40:10.259Z,97589.25
2024-02-09T04:42:36.640Z,97568.69
2024-02-09T04:45:03.117Z,97575.91
2024-02-09T04:47:29.593Z,97567.84
2024-02-09T04:49:56.020Z,97568.69
2024-02-09T04:52:23.221Z,97563.16
2024-02-09T04:54:49.571Z,97573.59
2024-02-09T04:57:15.940Z,97560.41
2024-02-09T04:59:42.252Z,97570.06
2024-02-09T05:02:12.031Z,97558.09
2024-02-09T05:04:38.447Z,97566.88
2024-02-09T05:07:05.979Z,97564.88
2024-02-09T05:09:32.447Z,97556.19
2024-02-09T05:12:00.278Z,97562.31
2024-02-09T05:14:26.786Z,97560.75
2024-02-09T05:16:53.442Z,97554.69
2024-02-09T05:19:20.331Z,97558.28
2024-02-09T05:21:46.748Z,97540.72
2024-02-09T05:24:13.765Z,97548.84
2024-02-09T05:26:40.249Z,97541.88
2024-02-09T05:29:06.621Z,97547.25
2024-02-09T05:31:33.102Z,97543.03
2024-02-09T05:33:59.766Z,97552.66
2024-02-09T05:36:27.024Z,97543.69
2024-02-09T05:38:55.311Z,97552.56
2024-02-09T05:41:22.404Z,97551.72
2024-02-09T05:43:50.748Z,97550.97
2024-02-09T05:46:17.645Z,97541.66
2024-02-09T05:48:45.427Z,97540.72
2024-02-09T05:51:20.121Z,97544.94
2024-02-09T05:53:50.167Z,97543.13
2024-02-09T05:56:27.065Z,97537.72
2024-02-09T05:58:53.910Z,97534.00
2024-02-09T06:01:21.421Z,97528.72
2024-02-09T06:03:48.665Z,97526.38
2024-02-09T06:06:19.873Z,97535.72
2024-02-09T06:08:47.482Z,97530.44
2024-02-09T06:11:15.024Z,97534.00
2024-02-09T06:13:46.045Z,97533.81
2024-02-09T06:16:16.930Z,97534.66
2024-02-09T06:18:46.940Z,97531.28
2024-02-09T06:21:20.567Z,97542.19
2024-02-09T06:23:47.759Z,97543.88
2024-02-09T06:26:18.003Z,97546.66
2024-02-09T06:28:48.291Z,97547.50
2024-02-09T06:31:27.541Z,97541.53
2024-02-09T06:33:56.147Z,97552.47
2024-02-09T06:36:23.235Z,97569.03
2024-02-09T06:38:50.399Z,97555.13
2024-02-09T06:41:16.791Z,97563.81
2024-02-09T06:43:43.199Z,97563.81
2024-02-09T06:46:10.213Z,97565.72
2024-02-09T06:48:36.642Z,97564.13
2024-02-09T06:51:06.294Z,97560.53
2024-02-09T06:53:32.883Z,97558.72
2024-02-09T06:56:00.915Z,97562.09
2024-02-09T06:58:27.419Z,97560.19
2024-02-09T07:00:53.933Z,97565.41
2024-02-09T07:03:22.863Z,97564.56
2024-02-09T07:05:53.045Z,97567.84
2024-02-09T07:08:27.569Z,97566.88
2024-02-09T07:10:53.981Z,97572.94
2024-02-09T07:13:20.362Z,97558.19
2024-02-09T07:15:46.711Z,97561.38
2024-02-09T07:18:13.121Z,97570.94
2024-02-09T07:20:40.747Z,97560.19
2024-02-09T07:23:07.152Z,97557.53
2024-02-09T07:25:34.177Z,97559.34
2024-02-09T07:28:00.675Z,97556.59
2024-02-09T07:30:27.763Z,97567.09
2024-02-09T07:32:54.224Z,97561.66
2024-02-09T07:35:20.744Z,97569.44
2024-02-09T07:37:47.197Z,97569.94
2024-02-09T07:40:18.142Z,97560.63
2024-02-09T07:42:44.638Z,97557.72
2024-02-09T07:45:13.839Z,97549.44
2024-02-09T07:47:40.309Z,97568.66
2024-02-09T07:50:06.849Z,97562.81
2024-02-09T07:52:36.026Z,97563.41
2024-02-09T07:55:03.285Z,97570.34
2024-02-09T07:57:30.481Z,97562.13
2024-02-09T07:59:56.813Z,97562.88
2024-02-09T08:02:23.220Z,97566.78
2024-02-09T08:04:49.831Z,97572.09
2024-02-09T08:07:20.680Z,97563.28
2024-02-09T08:09:47.958Z,97564.84
2024-02-09T08:12:16.474Z,97558.50
2024-02-09T08:14:44.081Z,97569.63
2024-02-09T08:17:10.530Z,97557.19
2024-02-09T08:19:36.940Z,97544.66
2024-02-09T08:22:03.483Z,97547.88
2024-02-09T08:24:29.832Z,97547.63
2024-02-09T08:26:56.216Z,97540.41
2024-02-09T08:29:22.925Z,97531.88
2024-02-09T08:31:49.304Z,97537.47
2024-02-09T08:34:16.208Z,97520.97
2024-02-09T08:36:42.649Z,97531.75
2024-02-09T08:39:09.082Z,97546.78
2024-02-09T08:41:35.491Z,97543.78
2024-02-09T08:44:02.882Z,97533.03
2024-02-09T08:46:29.473Z,97530.03
2024-02-09T08:48:57.377Z,97541.03
2024-02-09T08:51:23.863Z,97528.94
2024-02-09T08:53:50.300Z,97526.91
2024-02-09T08:56:16.795Z,97527.53
2024-02-09T08:58:43.499Z,97533.34
2024-02-09T09:01:10.116Z,97535.78
2024-02-09T09:03:36.841Z,97534.31
2024-02-09T09:06:04.475Z,97530.81
2024-02-09T09:08:31.736Z,97534.09
2024-02-09T09:10:58.204Z,97538.44
2024-02-09T09:13:25.740Z,97534.72
2024-02-09T09:15:52.224Z,97536.44
2024-02-09T09:18:18.660Z,97531.94
2024-02-09T09:20:46.033Z,97532.53
2024-02-09T09:23:12.461Z,97534.38
2024-02-09T09:25:38.838Z,97523.88
2024-02-09T09:28:05.562Z,97522.00
2024-02-09T09:30:32.078Z,97523.34
2024-02-09T09:32:58.687Z,97527.44
2024-02-09T09:35:25.622Z,97527.94
2024-02-09T09:37:52.278Z,97518.03
2024-02-09T09:40:19.998Z,97527.84
2024-02-09T09:42:46.511Z,97520.69
2024-02-09T09:45:13.017Z,97534.00
2024-02-09T09:47:42.048Z,97525.63
2024-02-09T09:50:11.275Z,97523.00
2024-02-09T09:52:45.673Z,97523.81
2024-02-09T09:55:13.483Z,97529.03
2024-02-09T09:57:39.872Z,97539.91
2024-02-09T10:00:07.943Z,97516.88
2024-02-09T10:02:35.638Z,97523.84
2024-02-09T10:05:02.466Z,97513.88
2024-02-09T10:07:30.410Z,97509.00
2024-02-09T10:09:57.777Z,97511.91
2024-02-09T10:12:25.443Z,97511.31
2024-02-09T10:14:51.937Z,97510.47
2024-02-09T10:17:18.347Z,97510.72
2024-02-09T10:19:44.876Z,97509.31
2024-02-09T10:22:16.590Z,97513.44
2024-02-09T10:24:49.916Z,97519.78
2024-02-09T10:27:16.361Z,97508.44
2024-02-09T10:29:43.147Z,97524.91
2024-02-09T10:32:09.527Z,97508.09
2024-02-09T10:34:38.939Z,97527.44
2024-02-09T10:37:10.952Z,97521.75
2024-02-09T10:39:44.311Z,97521.88
2024-02-09T10:42:15.228Z,97516.69
2024-02-09T10:44:44.976Z,97524.41
2024-02-09T10:47:12.596Z,97513.88
2024-02-09T10:49:45.019Z,97524.69
2024-02-09T10:52:14.936Z,97512.66
2024-02-09T10:54:51.666Z,97519.81
2024-02-09T10:57:20.469Z,97512.53
2024-02-09T10:59:48.311Z,97508.16
2024-02-09T11:02:15.246Z,97519.03
2024-02-09T11:04:42.460Z,97517.31
2024-02-09T11:07:10.051Z,97517.84
2024-02-09T11:09:38.213Z,97511.63
2024-02-09T11:12:07.954Z,97505.50
2024-02-09T11:14:35.240Z,97508.28
2024-02-09T11:17:07.906Z,97501.91
2024-02-09T11:19:42.054Z,97501.22
2024-02-09T11:22:10.282Z,97503.56
2024-02-09T11:24:37.321Z,97497.31
2024-02-09T11:27:05.963Z,97499.66
2024-02-09T11:29:33.739Z,97489.59
2024-02-09T11:32:03.600Z,97487.97
2024-02-09T11:34:31.734Z,97482.03
2024-02-09T11:37:02.373Z,97483.97
2024-02-09T11:39:31.544Z,97481.59
2024-02-09T11:41:58.469Z,97477.34
2024-02-09T11:44:25.171Z,97479.75
2024-02-09T11:46:54.984Z,97470.34
2024-02-09T11:49:22.696Z,97468.38
2024-02-09T11:51:52.172Z,97471.75
2024-02-09T11:54:22.372Z,97473.00
2024-02-09T11:56:51.059Z,97471.44
2024-02-09T11:59:18.458Z,97469.28
2024-02-09T12:01:44.999Z,97460.81
2024-02-09T12:04:12.089Z,97466.84
2024-02-09T12:06:38.615Z,97469.91
2024-02-09T12:09:05.588Z,97462.75
2024-02-09T12:11:32.102Z,97462.31
2024-02-09T12:13:58.605Z,97455.13
2024-02-09T12:16:25.188Z,97457.19
2024-02-09T12:18:56.319Z,97454.94
2024-02-09T12:21:22.782Z,97451.56
2024-02-09T12:23:51.324Z,97447.47
2024-02-09T12:26:19.501Z,97437.91
2024-02-09T12:28:47.190Z,97454.53
2024-02-09T12:31:17.906Z,97452.00
2024-02-09T12:33:46.470Z,97462.13
2024-02-09T12:36:21.445Z,97454.47
2024-02-09T12:38:59.401Z,97460.56
2024-02-09T12:41:26.282Z,97455.69
2024-02-09T12:44:03.549Z,97453.00
2024-02-09T12:46:30.893Z,97462.72
2024-02-09T12:48:57.793Z,97462.41
2024-02-09T12:51:24.966Z,97457.72
2024-02-09T12:53:51.704Z,97456.56
2024-02-09T12:56:18.553Z,97459.22
2024-02-09T12:58:45.589Z,97465.91
2024-02-09T13:01:12.794Z,97459.03
2024-02-09T13:03:41.409Z,97458.03
2024-02-09T13:06:08.709Z,97452.84
2024-02-09T13:08:37.921Z,97451.16
2024-02-09T13:11:07.808Z,97450.44
2024-02-09T13:13:36.492Z,97450.00
2024-02-09T13:16:03.813Z,97454.75
2024-02-09T13:18:32.261Z,97450.63
2024-02-09T13:20:59.580Z,97450.50
2024-02-09T13:23:27.725Z,97439.00
2024-02-09T13:25:54.257Z,97435.25
2024-02-09T13:28:20.732Z,97444.28
2024-02-09T13:30:47.379Z,97441.34
2024-02-09T13:33:13.920Z,97432.94
2024-02-09T13:35:41.580Z,97428.22
2024-02-09T13:38:07.904Z,97426.53
2024-02-09T13:40:34.443Z,97426.66
2024-02-09T13:43:01.260Z,97429.00
2024-02-09T13:45:27.695Z,97428.53
2024-02-09T13:47:54.918Z,97427.97
2024-02-09T13:50:25.387Z,97417.56
2024-02-09T13:52:54.626Z,97422.44
2024-02-09T13:55:23.936Z,97419.91
2024-02-09T13:57:57.680Z,97414.25
2024-02-09T14:00:25.597Z,97414.25
2024-02-09T14:02:52.159Z,97409.31
2024-02-09T14:05:19.460Z,97413.06
2024-02-09T14:07:47.941Z,97401.94
2024-02-09T14:10:15.314Z,97396.50
2024-02-09T14:12:43.385Z,97398.44
2024-02-09T14:15:11.769Z,97403.25
2024-02-09T14:17:39.172Z,97403.00
2024-02-09T14:20:06.777Z,97390.50
2024-02-09T14:22:33.808Z,97392.22
2024-02-09T14:25:00.380Z,97397.78
2024-02-09T14:27:26.965Z,97390.38
2024-02-09T14:29:54.368Z,97385.06
2024-02-09T14:32:22.360Z,97386.06
2024-02-09T14:34:48.964Z,97387.00
2024-02-09T14:37:15.340Z,97390.91
2024-02-09T14:39:46.213Z,97384.63
2024-02-09T14:42:13.112Z,97388.25
2024-02-09T14:44:44.541Z,97389.06
2024-02-09T14:47:11.550Z,97386.28
2024-02-09T14:49:38.693Z,97398.50
2024-02-09T14:52:08.741Z,97389.69
2024-02-09T14:54:37.271Z,97388.13
2024-02-09T14:57:05.629Z,97383.63
2024-02-09T14:59:32.292Z,97381.25
2024-02-09T15:01:58.710Z,97376.03
2024-02-09T15:04:25.776Z,97384.16
2024-02-09T15:06:52.896Z,97387.53
2024-02-09T15:09:20.098Z,97384.03
2024-02-09T15:11:46.567Z,97376.16
2024-02-09T15:14:13.240Z,97374.34
2024-02-09T15:16:42.414Z,97372.91
2024-02-09T15:19:13.668Z,97371.22
2024-02-09T15:21:49.394Z,97375.56
2024-02-09T15:24:15.889Z,97366.84
2024-02-09T15:26:43.873Z,97365.19
2024-02-09T15:29:10.576Z,97364.34
2024-02-09T15:31:38.779Z,97360.84
2024-02-09T15:34:05.331Z,97366.50
2024-02-09T15:36:33.385Z,97362.84
2024-02-09T15:38:59.870Z,97364.53
2024-02-09T15:41:26.526Z,97359.47
2024-02-09T15:43:53.352Z,97366.22
2024-02-09T15:46:20.669Z,97367.94
2024-02-09T15:48:51.192Z,97366.50
2024-02-09T15:51:24.928Z,97372.06
2024-02-09T15:53:58.275Z,97365.19
2024-02-09T15:56:26.494Z,97362.78
2024-02-09T15:58:53.372Z,97358.81
2024-02-09T16:01:20.407Z,97368.34
2024-02-09T16:03:51.913Z,97364.97
2024-02-09T16:06:18.945Z,97374.91
2024-02-09T16:08:45.325Z,97368.34
2024-02-09T16:11:11.797Z,97363.88
2024-02-09T16:13:39.209Z,97368.34
2024-02-09T16:16:08.619Z,97375.38
2024-02-09T16:18:36.732Z,97362.44
2024-02-09T16:21:03.290Z,97366.81
2024-02-09T16:23:29.732Z,97363.53
2024-02-09T16:26:02.286Z,97369.84
2024-02-09T16:28:33.611Z,97371.22
2024-02-09T16:31:01.069Z,97377.75
2024-02-09T16:33:28.210Z,97367.63
2024-02-09T16:35:54.779Z,97372.50
2024-02-09T16:38:21.247Z,97374.56
2024-02-09T16:40:48.553Z,97375.78
2024-02-09T16:43:16.050Z,97384.03
2024-02-09T16:45:43.933Z,97386.81
2024-02-09T16:48:10.890Z,97385.09
2024-02-09T16:50:37.805Z,97379.78
2024-02-09T16:53:04.406Z,97382.91
2024-02-09T16:55:30.812Z,97388.88
2024-02-09T16:57:57.166Z,97386.31
2024-02-09T17:00:23.517Z,97388.16
2024-02-09T17:02:49.891Z,97397.09
2024-02-09T17:05:16.543Z,97391.03
2024-02-09T17:07:43.151Z,97389.97
2024-02-09T17:10:12.324Z,97395.06
2024-02-09T17:12:39.814Z,97390.38
2024-02-09T17:15:08.858Z,97388.09
2024-02-09T17:17:35.938Z,97397.03
2024-02-09T17:20:03.677Z,97399.22
2024-02-09T17:22:34.634Z,97400.53
2024-02-09T17:25:01.056Z,97411.28
2024-02-09T17:27:27.563Z,97400.19
2024-02-09T17:29:54.284Z,97403.94
2024-02-09T17:32:20.588Z,97410.94
2024-02-09T17:34:46.993Z,97414.44
2024-02-09T17:37:14.049Z,97406.34
2024-02-09T17:39:41.046Z,97411.78
2024-02-09T17:42:07.626Z,97415.16
2024-02-09T17:44:34.452Z,97414.44
2024-02-09T17:47:04.306Z,97414.44
2024-02-09T17:49:32.750Z,97401.53
2024-02-09T17:51:59.566Z,97417.31
2024-02-09T17:54:25.961Z,97417.69
2024-02-09T17:56:52.336Z,97421.69
2024-02-09T17:59:18.788Z,97426.50
2024-02-09T18:01:45.496Z,97424.31
2024-02-09T18:04:12.064Z,97428.16
2024-02-09T18:06:39.654Z,97422.50
2024-02-09T18:09:09.633Z,97416.91
2024-02-09T18:11:37.355Z,97428.63
2024-02-09T18:14:03.757Z,97424.75
2024-02-09T18:16:30.172Z,97433.03
2024-02-09T18:18:56.740Z,97438.34
2024-02-09T18:21:23.057Z,97442.72
2024-02-09T18:23:49.523Z,97442.72
2024-02-09T18:26:17.100Z,97439.44
2024-02-09T18:28:45.049Z,97445.94
2024-02-09T18:31:14.990Z,97445.47
2024-02-09T18:33:43.201Z,97444.84
2024-02-09T18:36:09.756Z,97436.97
2024-02-09T18:38:37.416Z,97447.84
2024-02-09T18:41:04.733Z,97438.00
2024-02-09T18:43:33.993Z,97448.72
2024-02-09T18:46:00.775Z,97447.34
2024-02-09T18:48:30.166Z,97434.31
2024-02-09T18:50:56.585Z,97452.16
2024-02-09T18:53:23.056Z,97443.72
2024-02-09T18:55:49.519Z,97447.31
2024-02-09T18:58:16.050Z,97454.53
2024-02-09T19:00:43.460Z,97445.72
2024-02-09T19:03:10.076Z,97444.25
2024-02-09T19:05:36.590Z,97437.38
2024-02-09T19:08:04.257Z,97442.56
2024-02-09T19:10:34.485Z,97451.25
2024-02-09T19:13:02.301Z,97445.34
2024-02-09T19:15:29.510Z,97440.25
2024-02-09T19:17:55.951Z,97426.47
2024-02-09T19:20:22.335Z,97441.31
2024-02-09T19:22:49.271Z,97432.41
2024-02-09T19:25:19.807Z,97436.97
2024-02-09T19:27:47.601Z,97431.78
2024-02-09T19:30:17.607Z,97431.16
2024-02-09T19:32:45.854Z,97437.44
2024-02-09T19:35:13.841Z,97441.75
2024-02-09T19:37:40.368Z,97432.97
2024-02-09T19:40:07.728Z,97429.22
2024-02-09T19:42:34.800Z,97431.16
2024-02-09T19:45:02.114Z,97433.81
2024-02-09T19:47:31.005Z,97434.53
2024-02-09T19:49:57.486Z,97431.16
2024-02-09T19:52:23.880Z,97428.75
2024-02-09T19:54:50.431Z,97434.66
2024-02-09T19:57:16.933Z,97432.34
2024-02-09T19:59:43.382Z,97428.94
2024-02-09T20:02:12.125Z,97422.91
2024-02-09T20:04:40.493Z,97424.81
2024-02-09T20:07:07.555Z,97429.28
2024-02-09T20:09:37.090Z,97429.53
2024-02-09T20:12:04.378Z,97430.56
2024-02-09T20:14:32.000Z,97430.06
2024-02-09T20:16:59.041Z,97431.88
2024-02-09T20:19:26.318Z,97431.00
2024-02-09T20:21:54.247Z,97440.78
2024-02-09T20:24:20.703Z,97434.53
2024-02-09T20:26:48.517Z,97437.38
2024-02-09T20:29:17.215Z,97429.75
2024-02-09T20:31:43.943Z,97445.13
2024-02-09T20:34:10.338Z,97445.97
2024-02-09T20:36:37.480Z,97440.78
2024-02-09T20:39:04.265Z,97449.16
2024-02-09T20:41:33.135Z,97441.44
2024-02-09T20:44:00.428Z,97446.94
2024-02-09T20:46:27.551Z,97445.38
2024-02-09T20:48:56.994Z,97446.34
2024-02-09T20:51:23.545Z,97443.78
2024-02-09T20:53:50.496Z,97438.38
2024-02-09T20:56:17.858Z,97435.94
2024-02-09T20:58:45.376Z,97443.06
2024-02-09T21:01:13.119Z,97420.47
2024-02-09T21:03:40.635Z,97425.75
2024-02-09T21:06:08.235Z,97427.91
2024-02-09T21:08:35.522Z,97419.97
2024-02-09T21:11:02.605Z,97421.97
2024-02-09T21:13:29.922Z,97418.69
2024-02-09T21:15:57.989Z,97412.22
2024-02-09T21:18:28.639Z,97409.72
2024-02-09T21:20:59.097Z,97419.00
2024-02-09T21:23:32.808Z,97424.31
2024-02-09T21:26:00.578Z,97427.09
2024-02-09T21:28:29.359Z,97420.09
2024-02-09T21:30:55.934Z,97407.38
2024-02-09T21:33:23.738Z,97412.13
2024-02-09T21:35:54.583Z,97404.28
2024-02-09T21:38:21.267Z,97408.66
2024-02-09T21:40:48.546Z,97417.34
2024-02-09T21:43:17.079Z,97416.50
2024-02-09T21:45:48.235Z,97409.47
2024-02-09T21:48:18.816Z,97409.59
2024-02-09T21:50:47.937Z,97404.50
2024-02-09T21:53:14.797Z,97409.59
2024-02-09T21:55:41.225Z,97406.94
2024-02-09T21:58:09.149Z,97412.22
2024-02-09T22:00:36.756Z,97404.41
2024-02-09T22:03:03.372Z,97410.56
2024-02-09T22:05:31.448Z,97418.50
2024-02-09T22:07:58.002Z,97417.75
2024-02-09T22:10:27.140Z,97417.03
2024-02-09T22:12:55.372Z,97418.59
2024-02-09T22:15:25.557Z,97429.94
2024-02-09T22:17:54.549Z,97427.28
2024-02-09T22:20:21.524Z,97421.16
2024-02-09T22:22:48.246Z,97422.00
2024-02-09T22:25:15.894Z,97425.28
2024-02-09T22:27:43.473Z,97421.56
2024-02-09T22:30:10.436Z,97413.59
2024-02-09T22:32:41.014Z,97415.41
2024-02-09T22:35:13.122Z,97414.44
2024-02-09T22:37:40.506Z,97414.59
2024-02-09T22:40:20.701Z,97413.38
2024-02-09T22:42:49.739Z,97410.84
2024-02-09T22:45:16.216Z,97424.94
2024-02-09T22:47:42.911Z,97421.66
2024-02-09T22:50:09.977Z,97428.66
2024-02-09T22:52:37.145Z,97421.56
2024-02-09T22:55:04.049Z,97424.44
2024-02-09T22:57:30.661Z,97432.06
2024-02-09T22:59:57.773Z,97433.75
2024-02-09T23:02:24.131Z,97431.19
2024-02-09T23:04:53.850Z,97428.44
2024-02-09T23:07:21.862Z,97420.38
2024-02-09T23:09:48.245Z,97421.97
2024-02-09T23:12:17.719Z,97429.09
2024-02-09T23:14:45.319Z,97424.63
2024-02-09T23:17:11.753Z,97429.09
2024-02-09T23:19:38.803Z,97422.19
2024-02-09T23:22:05.845Z,97427.50
2024-02-09T23:24:32.176Z,97429.41
2024-02-09T23:26:58.544Z,97431.19
2024-02-09T23:29:25.606Z,97441.09
2024-02-09T23:31:53.492Z,97434.16
2024-02-09T23:34:21.088Z,97432.69
2024-02-09T23:36:48.839Z,97439.59
2024-02-09T23:39:16.285Z,97444.25
2024-02-09T23:41:42.776Z,97446.16
2024-02-09T23:44:09.225Z,97443.50
2024-02-09T23:46:36.142Z,97441.06
2024-02-09T23:49:02.915Z,97439.28
2024-02-09T23:51:29.413Z,97437.56
2024-02-09T23:53:55.769Z,97433.25
2024-02-09T23:56:22.833Z,97432.38
2024-02-09T23:58:51.696Z,97429.63
